createdAt,value
2018-01-06T00:00:57.371Z,-94
2018-01-06T00:03:24.307Z,-94
2018-01-06T00:05:54.980Z,-94
2018-01-06T00:08:21.972Z,-94
2018-01-06T00:10:48.837Z,-94
2018-01-06T00:13:16.428Z,-93
2018-01-06T00:15:44.295Z,-94
2018-01-06T00:18:12.367Z,-93
2018-01-06T00:20:39.244Z,-94
2018-01-06T00:23:06.076Z,-94
2018-01-06T00:25:33.016Z,-94
2018-01-06T00:27:59.910Z,-93
2018-01-06T00:30:26.722Z,-95
2018-01-06T00:32:53.591Z,-94
2018-01-06T00:35:20.433Z,-94
2018-01-06T00:37:47.300Z,-94
2018-01-06T00:40:14.079Z,-94
2018-01-06T00:42:41.503Z,-94
2018-01-06T00:45:08.340Z,-93
2018-01-06T01:11:32.088Z,-94
2018-01-06T01:13:58.895Z,-90
2018-01-06T01:16:26.407Z,-88
2018-01-06T01:18:53.211Z,-89
2018-01-06T01:21:20.254Z,-90
2018-01-06T01:23:47.813Z,-89
2018-01-06T01:26:14.730Z,-90
2018-01-06T01:28:42.049Z,-89
2018-01-06T01:31:08.905Z,-90
2018-01-06T01:33:35.785Z,-91
2018-01-06T01:36:02.595Z,-90
2018-01-06T01:38:30.167Z,-91
2018-01-06T01:40:57.707Z,-89
2018-01-06T01:43:24.524Z,-89
2018-01-06T01:45:51.356Z,-89
2018-01-06T01:48:18.886Z,-90
2018-01-06T01:50:45.736Z,-89
2018-01-06T01:53:12.543Z,-90
2018-01-06T01:55:39.344Z,-89
2018-01-06T01:58:06.221Z,-91
2018-01-06T02:00:33.577Z,-89
2018-01-06T02:03:00.994Z,-90
2018-01-06T02:05:28.700Z,-90
2018-01-06T02:07:56.080Z,-90
2018-01-06T02:10:23.631Z,-90
2018-01-06T02:12:50.451Z,-90
2018-01-06T02:15:17.340Z,-91
2018-01-06T02:17:44.210Z,-89
2018-01-06T02:20:11.793Z,-91
2018-01-06T02:22:38.713Z,-90
2018-01-06T02:25:06.810Z,-89
2018-01-06T02:27:33.576Z,-90
2018-01-06T02:30:02.278Z,-90
2018-01-06T02:32:29.646Z,-89
2018-01-06T02:34:57.033Z,-88
2018-01-06T02:37:23.860Z,-90
2018-01-06T02:39:52.566Z,-88
2018-01-06T02:42:19.412Z,-89
2018-01-06T02:44:47.164Z,-88
2018-01-06T02:47:14.446Z,-90
2018-01-06T02:49:42.056Z,-89
2018-01-06T02:52:09.542Z,-90
2018-01-06T02:54:38.647Z,-88
2018-01-06T02:57:05.460Z,-88
2018-01-06T02:59:32.224Z,-89
2018-01-06T03:01:59.099Z,-89
2018-01-06T03:04:26.034Z,-89
2018-01-06T03:06:52.845Z,-89
2018-01-06T03:09:20.427Z,-89
2018-01-06T03:11:47.967Z,-88
2018-01-06T03:14:14.779Z,-89
2018-01-06T03:16:41.596Z,-89
2018-01-06T03:19:08.379Z,-89
2018-01-06T03:21:36.552Z,-90
2018-01-06T03:24:04.151Z,-89
2018-01-06T03:26:31.701Z,-90
2018-01-06T03:28:59.015Z,-90
2018-01-06T03:31:25.809Z,-91
2018-01-06T03:33:52.608Z,-90
2018-01-06T03:36:21.409Z,-88
2018-01-06T03:38:50.257Z,-90
2018-01-06T03:41:17.065Z,-88
2018-01-06T03:43:43.919Z,-89
2018-01-06T03:46:10.750Z,-89
2018-01-06T03:48:37.608Z,-88
2018-01-06T03:51:04.607Z,-89
2018-01-06T03:53:31.404Z,-89
2018-01-06T03:55:59.098Z,-88
2018-01-06T03:58:27.482Z,-87
2018-01-06T04:00:54.341Z,-89
2018-01-06T04:03:21.883Z,-88
2018-01-06T04:05:48.689Z,-88
2018-01-06T04:08:17.096Z,-88
2018-01-06T04:10:43.908Z,-87
2018-01-06T04:13:10.770Z,-88
2018-01-06T04:15:37.611Z,-88
2018-01-06T04:18:04.386Z,-88
2018-01-06T04:20:31.220Z,-88
2018-01-06T04:22:58.038Z,-88
2018-01-06T04:25:25.592Z,-91
2018-01-06T04:27:52.422Z,-89
2018-01-06T04:30:19.233Z,-89
2018-01-06T04:32:46.760Z,-91
2018-01-06T04:35:13.528Z,-90
2018-01-06T04:37:40.350Z,-89
2018-01-06T04:40:07.477Z,-90
2018-01-06T04:42:34.301Z,-89
2018-01-06T04:45:01.108Z,-90
2018-01-06T04:47:27.982Z,-90
2018-01-06T04:49:55.596Z,-91
2018-01-06T04:52:22.476Z,-89
2018-01-06T04:54:49.281Z,-89
2018-01-06T04:57:16.829Z,-90
2018-01-06T04:59:43.621Z,-89
2018-01-06T05:02:11.308Z,-89
2018-01-06T05:04:40.982Z,-89
2018-01-06T05:07:07.829Z,-89
2018-01-06T05:09:34.658Z,-89
2018-01-06T05:12:01.475Z,-89
2018-01-06T05:14:29.022Z,-90
2018-01-06T05:16:55.822Z,-90
2018-01-06T05:19:22.686Z,-90
2018-01-06T05:21:49.471Z,-90
2018-01-06T05:24:17.881Z,-90
2018-01-06T05:26:44.682Z,-91
2018-01-06T05:29:11.480Z,-90
2018-01-06T05:31:39.037Z,-89
2018-01-06T05:34:05.822Z,-90
2018-01-06T05:36:33.426Z,-90
2018-01-06T05:39:00.232Z,-90
2018-01-06T05:41:27.023Z,-90
2018-01-06T05:43:53.831Z,-90
2018-01-06T05:46:20.626Z,-89
2018-01-06T05:48:47.405Z,-90
2018-01-06T05:51:14.979Z,-89
2018-01-06T05:53:41.861Z,-89
2018-01-06T05:56:08.645Z,-89
2018-01-06T05:58:35.495Z,-90
2018-01-06T06:01:02.331Z,-89
2018-01-06T06:03:29.142Z,-89
2018-01-06T06:05:55.936Z,-90
2018-01-06T06:08:23.457Z,-90
2018-01-06T06:10:50.300Z,-90
2018-01-06T06:13:17.109Z,-91
2018-01-06T06:15:43.897Z,-89
2018-01-06T06:18:11.394Z,-88
2018-01-06T06:20:38.180Z,-88
2018-01-06T06:23:04.978Z,-88
2018-01-06T06:25:31.765Z,-88
2018-01-06T06:27:59.436Z,-90
2018-01-06T06:30:26.976Z,-89
2018-01-06T06:32:53.777Z,-90
2018-01-06T06:35:21.300Z,-88
2018-01-06T06:37:48.089Z,-89
2018-01-06T06:40:14.884Z,-89
2018-01-06T06:42:41.662Z,-90
2018-01-06T06:45:08.532Z,-90
2018-01-06T06:47:35.340Z,-91
2018-01-06T06:50:03.546Z,-91
2018-01-06T06:52:31.114Z,-90
2018-01-06T06:54:59.078Z,-90
2018-01-06T06:57:26.126Z,-90
2018-01-06T06:59:53.152Z,-90
2018-01-06T07:02:20.412Z,-89
2018-01-06T07:04:47.212Z,-92
2018-01-06T07:07:14.020Z,-91
2018-01-06T07:09:40.812Z,-89
2018-01-06T07:12:07.660Z,-89
2018-01-06T07:14:34.506Z,-91
2018-01-06T07:17:02.047Z,-89
2018-01-06T07:19:28.873Z,-90
2018-01-06T07:21:55.671Z,-90
2018-01-06T07:24:22.501Z,-90
2018-01-06T07:26:49.365Z,-89
2018-01-06T07:29:16.297Z,-90
2018-01-06T07:31:43.934Z,-90
2018-01-06T07:34:10.726Z,-89
2018-01-06T07:36:38.398Z,-90
2018-01-06T07:39:05.208Z,-91
2018-01-06T07:41:32.006Z,-90
2018-01-06T07:43:58.772Z,-90
2018-01-06T07:46:25.616Z,-90
2018-01-06T07:48:52.412Z,-90
2018-01-06T07:51:19.957Z,-89
2018-01-06T07:53:46.844Z,-90
2018-01-06T07:56:14.353Z,-88
2018-01-06T07:58:42.143Z,-90
2018-01-06T08:01:08.929Z,-90
2018-01-06T08:03:35.762Z,-90
2018-01-06T08:06:02.576Z,-90
2018-01-06T08:08:29.434Z,-90
2018-01-06T08:10:56.272Z,-90
2018-01-06T08:13:23.086Z,-90
2018-01-06T08:15:49.950Z,-90
2018-01-06T08:18:16.784Z,-90
2018-01-06T08:20:43.595Z,-92
2018-01-06T08:23:11.149Z,-91
2018-01-06T08:25:37.942Z,-90
2018-01-06T08:28:04.748Z,-89
2018-01-06T08:30:31.590Z,-90
2018-01-06T08:32:58.466Z,-91
2018-01-06T08:35:25.264Z,-89
2018-01-06T08:37:52.148Z,-91
2018-01-06T08:40:18.955Z,-89
2018-01-06T08:42:46.627Z,-90
2018-01-06T08:45:13.535Z,-92
2018-01-06T08:47:40.372Z,-89
2018-01-06T08:50:07.938Z,-90
2018-01-06T08:52:35.503Z,-89
2018-01-06T08:55:02.619Z,-89
2018-01-06T08:57:29.466Z,-88
2018-01-06T08:59:56.349Z,-92
2018-01-06T09:02:23.185Z,-91
2018-01-06T09:04:49.980Z,-91
2018-01-06T09:07:16.860Z,-88
2018-01-06T09:09:44.088Z,-92
2018-01-06T09:12:10.888Z,-91
2018-01-06T09:14:37.689Z,-88
2018-01-06T09:17:05.197Z,-90
2018-01-06T09:19:32.055Z,-87
2018-01-06T09:21:58.869Z,-89
2018-01-06T09:24:26.499Z,-88
2018-01-06T09:26:53.355Z,-87
2018-01-06T09:29:20.241Z,-90
2018-01-06T09:31:47.252Z,-90
2018-01-06T09:34:14.897Z,-87
2018-01-06T09:36:41.782Z,-87
2018-01-06T09:39:09.395Z,-88
2018-01-06T09:41:36.177Z,-87
2018-01-06T09:44:02.998Z,-87
2018-01-06T09:46:29.816Z,-86
2018-01-06T09:48:56.748Z,-87
2018-01-06T09:51:23.584Z,-87
2018-01-06T09:53:50.468Z,-87
2018-01-06T09:56:17.291Z,-87
2018-01-06T09:58:44.826Z,-89
2018-01-06T10:01:11.741Z,-89
2018-01-06T10:03:39.367Z,-88
2018-01-06T10:06:06.168Z,-87
2018-01-06T10:08:33.709Z,-89
2018-01-06T10:11:00.565Z,-87
2018-01-06T10:13:27.390Z,-87
2018-01-06T10:15:54.223Z,-87
2018-01-06T10:18:21.120Z,-87
2018-01-06T10:20:47.948Z,-89
2018-01-06T10:23:15.532Z,-89
2018-01-06T10:25:43.061Z,-89
2018-01-06T10:28:09.860Z,-87
2018-01-06T10:30:37.413Z,-86
2018-01-06T10:33:04.167Z,-90
2018-01-06T10:35:30.917Z,-88
2018-01-06T10:37:57.672Z,-91
2018-01-06T10:40:25.408Z,-92
2018-01-06T10:42:52.942Z,-88
2018-01-06T10:45:19.703Z,-90
2018-01-06T10:47:46.473Z,-88
2018-01-06T10:50:13.254Z,-87
2018-01-06T10:52:40.790Z,-88
2018-01-06T10:55:07.576Z,-88
2018-01-06T10:57:34.378Z,-93
2018-01-06T11:00:01.226Z,-88
2018-01-06T11:02:27.995Z,-90
2018-01-06T11:04:54.826Z,-91
2018-01-06T11:07:21.578Z,-88
2018-01-06T11:09:48.371Z,-92
2018-01-06T11:12:15.188Z,-90
2018-01-06T11:14:41.997Z,-87
2018-01-06T11:17:08.751Z,-90
2018-01-06T11:19:35.521Z,-87
2018-01-06T11:22:02.286Z,-89
2018-01-06T11:24:29.024Z,-91
2018-01-06T11:26:55.797Z,-88
2018-01-06T11:29:22.605Z,-89
2018-01-06T11:31:49.388Z,-90
2018-01-06T11:34:16.876Z,-93
2018-01-06T11:36:44.375Z,-90
2018-01-06T11:39:11.166Z,-89
2018-01-06T11:41:37.964Z,-90
2018-01-06T11:44:05.482Z,-91
2018-01-06T11:46:32.234Z,-89
2018-01-06T11:48:59.056Z,-87
2018-01-06T11:51:26.601Z,-87
2018-01-06T11:53:53.382Z,-87
2018-01-06T11:56:20.365Z,-88
2018-01-06T11:58:47.866Z,-90
2018-01-06T12:01:14.730Z,-87
2018-01-06T12:03:41.562Z,-87
2018-01-06T12:06:08.320Z,-90
2018-01-06T12:08:35.831Z,-89
2018-01-06T12:11:02.660Z,-86
2018-01-06T12:13:30.163Z,-87
2018-01-06T12:15:57.006Z,-87
2018-01-06T12:18:23.770Z,-87
2018-01-06T12:20:50.535Z,-87
2018-01-06T12:23:17.295Z,-89
2018-01-06T12:25:44.176Z,-87
2018-01-06T12:28:10.997Z,-87
2018-01-06T12:30:38.553Z,-87
2018-01-06T12:33:05.295Z,-88
2018-01-06T12:35:32.046Z,-88
2018-01-06T12:37:58.847Z,-88
2018-01-06T12:40:26.360Z,-90
2018-01-06T12:42:53.141Z,-87
2018-01-06T12:45:19.917Z,-88
2018-01-06T12:47:46.685Z,-89
2018-01-06T12:50:13.492Z,-88
2018-01-06T12:52:40.261Z,-88
2018-01-06T12:55:07.016Z,-87
2018-01-06T12:57:33.795Z,-88
2018-01-06T13:00:00.557Z,-89
2018-01-06T13:02:27.331Z,-89
2018-01-06T13:04:54.131Z,-89
2018-01-06T13:07:21.693Z,-89
2018-01-06T13:09:49.211Z,-89
2018-01-06T13:12:16.049Z,-88
2018-01-06T13:14:42.847Z,-89
2018-01-06T13:17:09.698Z,-89
2018-01-06T13:19:36.438Z,-88
2018-01-06T13:22:03.221Z,-88
2018-01-06T13:24:29.999Z,-88
2018-01-06T13:26:56.792Z,-88
2018-01-06T13:29:23.553Z,-89
2018-01-06T13:31:51.059Z,-87
2018-01-06T13:34:17.912Z,-89
2018-01-06T13:36:44.683Z,-89
2018-01-06T13:39:11.476Z,-89
2018-01-06T13:41:38.229Z,-89
2018-01-06T13:44:04.972Z,-88
2018-01-06T13:46:31.742Z,-88
2018-01-06T13:48:58.508Z,-88
2018-01-06T13:51:25.297Z,-88
2018-01-06T13:53:52.201Z,-88
2018-01-06T13:56:18.968Z,-91
2018-01-06T13:58:46.510Z,-90
2018-01-06T14:01:13.261Z,-89
2018-01-06T14:03:40.262Z,-88
2018-01-06T14:06:07.032Z,-89
2018-01-06T14:08:33.877Z,-89
2018-01-06T14:11:00.676Z,-88
2018-01-06T14:13:27.467Z,-90
2018-01-06T14:15:54.972Z,-90
2018-01-06T14:18:21.747Z,-88
2018-01-06T14:20:48.494Z,-89
2018-01-06T14:23:15.312Z,-89
2018-01-06T14:25:42.083Z,-89
2018-01-06T14:28:09.586Z,-90
2018-01-06T14:30:36.363Z,-88
2018-01-06T14:33:03.200Z,-90
2018-01-06T14:35:29.962Z,-89
2018-01-06T14:37:56.747Z,-88
2018-01-06T14:40:23.518Z,-88
2018-01-06T14:42:50.276Z,-89
2018-01-06T14:45:17.207Z,-93
2018-01-06T14:47:44.174Z,-93
2018-01-06T14:50:10.983Z,-91
2018-01-06T14:52:37.752Z,-95
2018-01-06T14:55:04.552Z,-94
2018-01-06T14:57:31.345Z,-91
2018-01-06T14:59:58.127Z,-91
2018-01-06T15:02:24.944Z,-91
2018-01-06T15:04:51.747Z,-91
2018-01-06T15:07:18.590Z,-94
2018-01-06T15:09:45.737Z,-94
2018-01-06T15:12:12.659Z,-94
2018-01-06T15:14:40.240Z,-92
2018-01-06T15:17:07.774Z,-93
2018-01-06T15:19:34.563Z,-90
2018-01-06T15:22:01.467Z,-93
2018-01-06T15:24:28.250Z,-93
2018-01-06T15:26:55.086Z,-90
2018-01-06T15:29:21.963Z,-93
2018-01-06T15:31:48.802Z,-94
2018-01-06T15:34:15.608Z,-92
2018-01-06T15:36:42.393Z,-94
2018-01-06T15:39:09.750Z,-93
2018-01-06T15:41:38.044Z,-90
2018-01-06T15:44:04.951Z,-92
2018-01-06T15:46:31.837Z,-92
2018-01-06T15:49:00.003Z,-92
2018-01-06T15:51:27.067Z,-92
2018-01-06T15:53:53.959Z,-92
2018-01-06T15:56:20.856Z,-92
2018-01-06T15:58:47.702Z,-92
2018-01-06T16:01:14.521Z,-93
2018-01-06T16:03:41.394Z,-93
2018-01-06T16:06:08.966Z,-91
2018-01-06T16:08:35.859Z,-92
2018-01-06T16:11:02.647Z,-92
2018-01-06T16:13:30.225Z,-92
2018-01-06T16:15:57.404Z,-93
2018-01-06T16:18:24.283Z,-91
2018-01-06T16:20:51.177Z,-94
2018-01-06T16:23:18.056Z,-93
2018-01-06T16:25:45.186Z,-93
2018-01-06T16:28:12.127Z,-93
2018-01-06T16:30:39.833Z,-93
2018-01-06T16:33:07.132Z,-92
2018-01-06T16:35:34.118Z,-94
2018-01-06T16:38:01.030Z,-92
2018-01-06T16:40:27.821Z,-93
2018-01-06T16:42:54.737Z,-92
2018-01-06T16:45:21.641Z,-92
2018-01-06T16:47:48.486Z,-93
2018-01-06T16:50:15.348Z,-92
2018-01-06T16:52:42.167Z,-92
2018-01-06T16:55:09.786Z,-92
2018-01-06T16:57:36.664Z,-92
2018-01-06T17:00:03.550Z,-92
2018-01-06T17:02:30.988Z,-92
2018-01-06T17:04:57.826Z,-92
2018-01-06T17:07:24.671Z,-92
2018-01-06T17:09:52.306Z,-91
2018-01-06T17:12:19.285Z,-92
2018-01-06T17:14:46.143Z,-92
2018-01-06T17:17:13.289Z,-92
2018-01-06T17:19:40.163Z,-93
2018-01-06T17:22:07.969Z,-93
2018-01-06T17:24:35.581Z,-93
2018-01-06T17:27:02.445Z,-94
2018-01-06T17:29:29.264Z,-94
2018-01-06T17:31:56.094Z,-92
2018-01-06T17:34:22.929Z,-94
2018-01-06T17:36:49.811Z,-92
2018-01-06T17:39:16.626Z,-92
2018-01-06T17:41:43.479Z,-94
2018-01-06T17:44:10.301Z,-94
2018-01-06T17:46:37.143Z,-91
2018-01-06T17:49:04.006Z,-91
2018-01-06T17:51:31.565Z,-91
2018-01-06T17:53:58.421Z,-95
2018-01-06T17:56:25.247Z,-91
2018-01-06T17:58:52.106Z,-91
2018-01-06T18:01:18.959Z,-92
2018-01-06T18:03:45.836Z,-91
2018-01-06T18:06:12.640Z,-91
2018-01-06T18:08:39.471Z,-93
2018-01-06T18:11:07.098Z,-92
2018-01-06T18:13:34.015Z,-93
2018-01-06T18:16:01.285Z,-93
2018-01-06T18:18:28.164Z,-90
2018-01-06T18:20:54.929Z,-90
2018-01-06T18:23:21.773Z,-93
2018-01-06T18:25:49.377Z,-91
2018-01-06T18:28:16.200Z,-93
2018-01-06T18:30:43.047Z,-93
2018-01-06T18:33:09.863Z,-91
2018-01-06T18:35:36.705Z,-93
2018-01-06T18:38:03.577Z,-94
2018-01-06T18:40:30.358Z,-94
2018-01-06T18:42:57.176Z,-95
2018-01-06T18:45:24.736Z,-91
2018-01-06T18:47:51.586Z,-94
2018-01-06T18:50:18.482Z,-93
2018-01-06T18:52:46.672Z,-93
2018-01-06T18:55:14.245Z,-94
2018-01-06T18:57:41.869Z,-92
2018-01-06T19:00:09.021Z,-94
2018-01-06T19:02:36.440Z,-94
2018-01-06T19:05:03.568Z,-92
2018-01-06T19:07:30.399Z,-94
2018-01-06T19:09:57.998Z,-94
2018-01-06T19:12:25.726Z,-92
2018-01-06T19:14:52.648Z,-92
2018-01-06T19:17:20.101Z,-92
2018-01-06T19:19:47.146Z,-93
2018-01-06T19:22:14.054Z,-92
2018-01-06T19:24:40.867Z,-92
2018-01-06T19:27:07.664Z,-93
2018-01-06T19:29:34.507Z,-92
2018-01-06T19:32:02.117Z,-93
2018-01-06T19:34:28.910Z,-92
2018-01-06T19:36:55.806Z,-92
2018-01-06T19:39:23.428Z,-92
2018-01-06T19:41:50.501Z,-93
2018-01-06T19:44:17.321Z,-93
2018-01-06T19:46:44.983Z,-93
2018-01-06T19:49:11.801Z,-92
2018-01-06T19:51:38.624Z,-91
2018-01-06T19:54:06.247Z,-92
2018-01-06T19:56:33.043Z,-91
2018-01-06T19:59:00.441Z,-92
2018-01-06T20:01:27.269Z,-92
2018-01-06T20:03:55.036Z,-92
2018-01-06T20:06:21.996Z,-92
2018-01-06T20:08:49.108Z,-92
2018-01-06T20:11:15.968Z,-91
2018-01-06T20:13:42.822Z,-92
2018-01-06T20:16:10.403Z,-91
2018-01-06T20:18:37.222Z,-92
2018-01-06T20:21:04.056Z,-93
2018-01-06T20:23:31.666Z,-91
2018-01-06T20:25:58.487Z,-91
2018-01-06T20:28:25.649Z,-92
2018-01-06T20:30:52.619Z,-92
2018-01-06T20:33:19.450Z,-93
2018-01-06T20:35:46.276Z,-93
2018-01-06T20:38:13.220Z,-92
2018-01-06T20:40:40.048Z,-92
2018-01-06T20:43:07.683Z,-92
2018-01-06T20:45:34.546Z,-92
2018-01-06T20:48:01.506Z,-93
2018-01-06T20:50:28.384Z,-92
2018-01-06T20:52:55.844Z,-92
2018-01-06T20:55:23.464Z,-93
2018-01-06T20:57:50.401Z,-92
2018-01-06T21:00:19.013Z,-92
2018-01-06T21:02:46.809Z,-93
2018-01-06T21:05:13.806Z,-92
2018-01-06T21:07:41.664Z,-92
2018-01-06T21:10:09.305Z,-92
2018-01-06T21:12:38.113Z,-93
2018-01-06T21:15:05.769Z,-93
2018-01-06T21:17:34.007Z,-93
2018-01-06T21:20:01.471Z,-94
2018-01-06T21:22:28.672Z,-93
2018-01-06T21:24:55.593Z,-94
2018-01-06T21:27:23.593Z,-93
2018-01-06T21:29:51.825Z,-94
2018-01-06T21:32:18.830Z,-93
2018-01-06T21:34:46.359Z,-93
2018-01-06T21:37:14.040Z,-94
2018-01-06T21:39:42.756Z,-94
2018-01-06T21:42:11.381Z,-92
2018-01-06T21:44:38.460Z,-93
2018-01-06T21:47:05.279Z,-93
2018-01-06T21:49:33.267Z,-93
2018-01-06T21:52:00.178Z,-93
2018-01-06T21:54:27.072Z,-92
2018-01-06T21:56:55.053Z,-93
2018-01-06T21:59:21.953Z,-93
2018-01-06T22:01:49.164Z,-92
2018-01-06T22:04:16.724Z,-93
2018-01-06T22:06:43.786Z,-94
2018-01-06T22:09:10.882Z,-93
2018-01-06T22:11:37.805Z,-95
2018-01-06T22:14:04.728Z,-94
2018-01-06T22:16:32.359Z,-94
2018-01-06T22:18:59.229Z,-94
2018-01-06T22:21:26.375Z,-96
2018-01-06T22:23:53.216Z,-92
2018-01-06T22:26:20.122Z,-94
2018-01-06T22:28:46.975Z,-93
2018-01-06T22:31:14.904Z,-92
2018-01-06T22:33:41.755Z,-93
2018-01-06T22:36:08.739Z,-92
2018-01-06T22:38:36.255Z,-93
2018-01-06T22:41:03.278Z,-93
2018-01-06T22:43:30.244Z,-94
2018-01-06T22:45:57.854Z,-93
2018-01-06T22:48:24.695Z,-93
2018-01-06T22:50:51.654Z,-95
2018-01-06T22:53:18.977Z,-94
2018-01-06T22:55:46.625Z,-94
2018-01-06T22:58:13.427Z,-94
2018-01-06T23:00:50.229Z,-94
2018-01-06T23:03:19.307Z,-95
2018-01-06T23:05:47.844Z,-92
2018-01-06T23:08:17.660Z,-93
2018-01-06T23:10:47.832Z,-93
2018-01-06T23:13:18.708Z,-94
2018-01-06T23:15:45.599Z,-94
2018-01-06T23:18:16.853Z,-94
2018-01-06T23:20:45.966Z,-94
2018-01-06T23:23:15.548Z,-92
2018-01-06T23:25:45.429Z,-93
2018-01-06T23:41:36.316Z,-92
